createdAt,value
2017-11-05T00:02:26.436Z,17.57
2017-11-05T00:04:53.979Z,17.57
2017-11-05T00:07:21.547Z,16.87
2017-11-05T00:09:49.083Z,16.23
2017-11-05T00:12:16.614Z,16.67
2017-11-05T00:14:44.457Z,18.97
2017-11-05T00:17:11.995Z,18.53
2017-11-05T00:19:39.536Z,18.17
2017-11-05T00:22:07.855Z,17.10
2017-11-05T00:24:36.165Z,18.60
2017-11-05T00:27:03.699Z,17.00
2017-11-05T00:29:31.269Z,17.37
2017-11-05T00:31:58.803Z,17.77
2017-11-05T00:34:26.343Z,18.90
2017-11-05T00:36:53.935Z,18.07
2017-11-05T00:39:21.469Z,16.80
2017-11-05T00:41:49.016Z,17.97
2017-11-05T00:44:16.617Z,17.70
2017-11-05T00:46:44.152Z,23.90
2017-11-05T00:49:11.687Z,17.30
2017-11-05T00:51:40.011Z,17.37
2017-11-05T00:54:07.548Z,17.30
2017-11-05T00:56:35.079Z,17.43
2017-11-05T00:59:02.673Z,17.00
2017-11-05T01:01:31.380Z,17.30
2017-11-05T01:03:58.921Z,16.50
2017-11-05T01:06:26.486Z,15.88
2017-11-05T01:08:54.018Z,15.23
2017-11-05T01:11:21.559Z,15.60
2017-11-05T01:13:49.124Z,14.90
2017-11-05T01:16:16.670Z,14.40
2017-11-05T01:18:44.220Z,15.27
2017-11-05T01:21:11.831Z,15.57
2017-11-05T01:23:39.375Z,14.80
2017-11-05T01:26:06.907Z,13.03
2017-11-05T01:28:34.459Z,13.73
2017-11-05T01:31:02.000Z,13.47
2017-11-05T01:33:29.549Z,14.57
2017-11-05T01:35:57.126Z,14.83
2017-11-05T01:38:24.656Z,15.47
2017-11-05T01:40:52.199Z,14.20
2017-11-05T01:43:19.793Z,15.60
2017-11-05T01:45:48.086Z,13.60
2017-11-05T01:48:17.256Z,15.10
2017-11-05T01:50:44.824Z,13.30
2017-11-05T01:53:12.372Z,13.23
2017-11-05T01:55:39.911Z,13.93
2017-11-05T01:58:08.239Z,13.80
2017-11-05T02:00:35.776Z,14.80
2017-11-05T02:03:03.726Z,14.90
2017-11-05T02:05:32.068Z,13.30
2017-11-05T02:07:59.607Z,13.40
2017-11-05T02:10:27.164Z,13.20
2017-11-05T02:12:54.728Z,13.10
2017-11-05T02:15:22.264Z,11.80
2017-11-05T02:17:49.794Z,13.70
2017-11-05T02:20:18.116Z,13.40
2017-11-05T02:22:45.650Z,12.90
2017-11-05T02:25:14.447Z,13.20
2017-11-05T02:37:22.052Z,15.30
2017-11-05T02:39:49.599Z,13.80
2017-11-05T02:42:17.137Z,15.37
2017-11-05T02:44:44.728Z,15.20
2017-11-05T02:47:12.267Z,14.43
2017-11-05T02:49:39.801Z,15.23
2017-11-05T02:52:07.379Z,13.00
2017-11-05T02:54:34.915Z,14.80
2017-11-05T02:57:02.459Z,14.57
2017-11-05T02:59:30.048Z,15.10
2017-11-05T03:01:57.584Z,14.63
2017-11-05T03:04:26.485Z,13.60
2017-11-05T03:06:54.051Z,15.10
2017-11-05T03:09:21.580Z,13.07
2017-11-05T03:11:49.892Z,13.80
2017-11-05T03:14:17.452Z,14.15
2017-11-05T03:16:44.988Z,15.00
2017-11-05T03:19:12.519Z,15.53
2017-11-05T03:21:40.109Z,15.50
2017-11-05T03:24:07.649Z,14.43
2017-11-05T03:26:35.187Z,15.30
2017-11-05T03:29:02.755Z,15.53
2017-11-05T03:31:30.283Z,15.05
2017-11-05T03:33:57.815Z,15.67
2017-11-05T03:36:26.136Z,14.73
2017-11-05T03:38:53.680Z,14.87
2017-11-05T03:41:21.992Z,15.62
2017-11-05T03:43:49.607Z,15.90
2017-11-05T03:46:17.147Z,15.60
2017-11-05T03:48:44.683Z,15.97
2017-11-05T03:51:12.280Z,15.40
2017-11-05T03:53:39.820Z,15.33
2017-11-05T03:56:07.359Z,15.37
2017-11-05T03:58:34.919Z,16.17
2017-11-05T04:01:02.511Z,14.30
2017-11-05T04:03:30.043Z,15.23
2017-11-05T04:05:57.625Z,15.30
2017-11-05T04:08:25.923Z,14.67
2017-11-05T04:10:53.463Z,15.93
2017-11-05T04:13:21.804Z,15.50
2017-11-05T04:15:49.339Z,15.50
2017-11-05T04:18:16.880Z,15.20
2017-11-05T04:20:44.439Z,16.10
2017-11-05T04:23:11.980Z,16.13
2017-11-05T04:25:40.276Z,15.40
2017-11-05T04:28:07.864Z,13.97
2017-11-05T04:30:35.395Z,15.20
2017-11-05T04:33:02.923Z,15.80
2017-11-05T04:35:30.488Z,15.77
2017-11-05T04:37:58.783Z,14.73
2017-11-05T04:40:26.320Z,15.30
2017-11-05T04:42:54.662Z,14.67
2017-11-05T04:45:22.208Z,14.70
2017-11-05T04:47:49.765Z,15.90
2017-11-05T04:50:17.347Z,14.80
2017-11-05T04:52:44.888Z,14.13
2017-11-05T04:55:12.431Z,14.80
2017-11-05T04:57:40.004Z,15.23
2017-11-05T05:00:07.552Z,14.23
2017-11-05T05:02:35.084Z,15.87
2017-11-05T05:05:02.648Z,16.40
2017-11-05T05:07:30.827Z,14.60
2017-11-05T05:09:58.378Z,16.58
2017-11-05T05:12:26.259Z,15.85
2017-11-05T05:14:53.791Z,16.30
2017-11-05T05:17:22.104Z,17.30
2017-11-05T05:19:49.665Z,17.20
2017-11-05T05:22:17.232Z,18.60
2017-11-05T05:24:44.793Z,19.40
2017-11-05T05:27:12.362Z,18.20
2017-11-05T05:29:39.899Z,16.50
2017-11-05T05:32:08.818Z,18.05
2017-11-05T05:34:36.441Z,18.70
2017-11-05T05:37:03.971Z,17.60
2017-11-05T05:39:31.495Z,18.40
2017-11-05T05:41:59.060Z,18.27
2017-11-05T05:44:26.590Z,17.10
2017-11-05T05:46:54.127Z,17.20
2017-11-05T05:49:22.449Z,18.10
2017-11-05T05:51:49.986Z,17.60
2017-11-05T05:54:17.523Z,18.07
2017-11-05T05:56:45.881Z,19.27
2017-11-05T05:59:15.328Z,19.62
2017-11-05T06:01:42.872Z,19.83
2017-11-05T06:04:10.436Z,18.77
2017-11-05T06:06:37.975Z,18.67
2017-11-05T06:09:05.657Z,19.60
2017-11-05T06:11:33.224Z,21.27
2017-11-05T06:14:00.764Z,20.20
2017-11-05T06:16:29.072Z,18.53
2017-11-05T06:18:56.660Z,19.77
2017-11-05T06:21:24.186Z,16.40
2017-11-05T06:23:51.723Z,15.77
2017-11-05T06:26:19.308Z,15.80
2017-11-05T06:28:46.852Z,16.80
2017-11-05T06:31:15.573Z,15.73
2017-11-05T06:40:08.174Z,15.57
2017-11-05T06:42:35.715Z,16.80
2017-11-05T06:45:03.268Z,19.00
2017-11-05T06:47:30.832Z,22.50
2017-11-05T06:49:58.371Z,16.62
2017-11-05T06:52:25.904Z,18.70
2017-11-05T06:54:53.477Z,16.80
2017-11-05T06:57:21.779Z,14.55
2017-11-05T06:59:49.319Z,16.10
2017-11-05T07:02:17.728Z,14.23
2017-11-05T07:04:45.272Z,15.53
2017-11-05T07:07:13.631Z,13.62
2017-11-05T07:17:24.730Z,14.17
2017-11-05T07:19:52.263Z,12.60
2017-11-05T07:22:19.809Z,13.40
2017-11-05T07:24:47.383Z,16.27
2017-11-05T07:27:16.391Z,17.27
2017-11-05T07:29:43.971Z,16.33
2017-11-05T07:32:11.568Z,14.87
2017-11-05T07:34:39.131Z,14.33
2017-11-05T07:37:06.671Z,16.43
2017-11-05T07:39:35.323Z,16.93
2017-11-05T07:42:02.862Z,17.97
2017-11-05T07:44:30.403Z,17.80
2017-11-05T07:46:57.981Z,13.07
2017-11-05T07:49:25.514Z,14.97
2017-11-05T07:51:53.056Z,14.93
2017-11-05T07:54:21.411Z,17.67
2017-11-05T07:56:48.963Z,20.03
2017-11-05T07:59:16.498Z,16.23
2017-11-05T08:01:44.313Z,15.40
2017-11-05T08:04:11.859Z,14.40
2017-11-05T08:06:39.407Z,14.85
2017-11-05T08:09:06.973Z,13.70
2017-11-05T08:11:34.536Z,14.00
2017-11-05T08:14:02.072Z,14.27
2017-11-05T08:16:29.640Z,13.00
2017-11-05T08:18:57.652Z,12.43
2017-11-05T08:21:25.959Z,13.30
2017-11-05T08:23:53.566Z,13.95
2017-11-05T08:26:21.116Z,11.97
2017-11-05T08:28:48.660Z,12.40
2017-11-05T08:31:16.435Z,12.07
2017-11-05T08:33:43.976Z,12.07
2017-11-05T08:36:11.515Z,12.20
2017-11-05T08:38:39.089Z,11.73
2017-11-05T08:41:06.627Z,12.50
2017-11-05T08:43:34.941Z,13.23
2017-11-05T08:46:02.537Z,13.50
2017-11-05T08:48:30.075Z,12.80
2017-11-05T08:50:57.615Z,13.20
2017-11-05T08:53:25.176Z,13.73
2017-11-05T08:55:52.789Z,18.67
2017-11-05T08:58:21.101Z,18.55
2017-11-05T09:00:48.687Z,15.10
2017-11-05T09:03:16.423Z,13.20
2017-11-05T09:05:43.964Z,13.57
2017-11-05T09:08:12.356Z,12.68
2017-11-05T09:10:39.899Z,13.40
2017-11-05T09:13:08.203Z,13.85
2017-11-05T09:15:35.772Z,13.10
2017-11-05T09:18:03.316Z,13.60
2017-11-05T09:20:31.084Z,18.67
2017-11-05T09:22:58.659Z,16.90
2017-11-05T09:25:26.199Z,16.67
2017-11-05T09:27:53.747Z,17.10
2017-11-05T09:30:21.343Z,17.40
2017-11-05T09:32:48.884Z,16.30
2017-11-05T09:35:16.476Z,15.95
2017-11-05T09:37:44.037Z,16.30
2017-11-05T09:40:11.576Z,15.13
2017-11-05T09:42:39.110Z,15.30
2017-11-05T09:45:07.437Z,16.87
2017-11-05T09:47:34.976Z,15.17
2017-11-05T09:50:02.513Z,16.30
2017-11-05T09:52:30.114Z,15.70
2017-11-05T09:54:57.664Z,16.40
2017-11-05T09:57:25.208Z,16.90
2017-11-05T09:59:52.780Z,16.80
2017-11-05T10:02:20.364Z,18.84
2017-11-05T10:04:47.904Z,17.83
2017-11-05T10:07:17.210Z,20.80
2017-11-05T10:09:44.754Z,19.67
2017-11-05T10:12:12.304Z,19.97
2017-11-05T10:14:39.968Z,18.50
2017-11-05T10:17:07.516Z,19.53
2017-11-05T10:19:35.056Z,18.40
2017-11-05T10:22:03.840Z,18.63
2017-11-05T10:24:32.147Z,19.20
2017-11-05T10:26:59.684Z,18.83
2017-11-05T10:29:28.022Z,19.40
2017-11-05T10:31:55.566Z,20.20
2017-11-05T10:34:23.100Z,19.03
2017-11-05T10:36:50.702Z,19.00
2017-11-05T10:39:18.247Z,18.77
2017-11-05T10:41:45.783Z,20.97
2017-11-05T10:44:14.585Z,20.15
2017-11-05T10:46:42.143Z,22.60
2017-11-05T10:49:09.687Z,21.40
2017-11-05T10:51:37.251Z,19.03
2017-11-05T10:54:04.797Z,18.63
2017-11-05T10:56:33.118Z,19.20
2017-11-05T10:59:00.988Z,19.80
2017-11-05T11:01:28.533Z,18.20
2017-11-05T11:03:56.071Z,20.40
2017-11-05T11:06:23.644Z,19.60
2017-11-05T11:08:51.183Z,19.93
2017-11-05T11:11:19.489Z,21.60
2017-11-05T11:13:47.052Z,18.90
2017-11-05T11:16:16.407Z,20.83
2017-11-05T11:18:44.745Z,19.70
2017-11-05T11:21:12.339Z,20.20
2017-11-05T11:23:40.283Z,19.33
2017-11-05T11:26:07.816Z,19.70
2017-11-05T11:28:35.383Z,21.53
2017-11-05T11:31:02.923Z,20.10
2017-11-05T11:33:30.480Z,20.27
2017-11-05T11:35:58.052Z,21.90
2017-11-05T11:38:25.611Z,21.53
2017-11-05T11:40:53.155Z,37.00
2017-11-05T11:43:20.742Z,21.10
2017-11-05T11:45:48.316Z,21.77
2017-11-05T11:48:16.439Z,20.77
2017-11-05T11:50:44.768Z,21.70
2017-11-05T11:53:12.313Z,19.50
2017-11-05T11:55:39.856Z,18.30
2017-11-05T11:58:07.434Z,17.50
2017-11-05T12:00:34.975Z,20.37
2017-11-05T12:03:02.520Z,18.43
2017-11-05T12:05:30.156Z,20.57
2017-11-05T12:07:57.701Z,20.40
2017-11-05T12:10:25.244Z,20.80
2017-11-05T12:12:52.818Z,23.63
2017-11-05T12:15:20.352Z,24.80
2017-11-05T12:17:47.899Z,24.60
2017-11-05T12:20:16.494Z,24.80
2017-11-05T12:22:44.034Z,26.20
2017-11-05T12:25:11.975Z,25.67
2017-11-05T12:27:40.335Z,25.03
2017-11-05T12:30:07.875Z,25.00
2017-11-05T12:32:35.414Z,24.95
2017-11-05T12:35:03.044Z,25.50
2017-11-05T12:37:31.351Z,25.90
2017-11-05T12:40:02.550Z,24.87
2017-11-05T12:42:30.891Z,27.07
2017-11-05T12:44:58.434Z,24.48
2017-11-05T12:47:26.044Z,26.50
2017-11-05T12:49:53.643Z,26.70
2017-11-05T12:52:21.183Z,24.43
2017-11-05T12:54:49.500Z,26.03
2017-11-05T12:57:17.087Z,26.17
2017-11-05T12:59:44.627Z,25.47
2017-11-05T13:02:12.182Z,25.87
2017-11-05T13:04:39.802Z,25.43
2017-11-05T13:07:08.116Z,24.87
2017-11-05T13:09:35.652Z,25.03
2017-11-05T13:12:03.244Z,24.63
2017-11-05T13:14:30.783Z,25.53
2017-11-05T13:16:58.346Z,24.87
2017-11-05T13:19:25.954Z,24.63
2017-11-05T13:21:53.564Z,27.15
2017-11-05T13:24:21.107Z,27.60
2017-11-05T13:26:49.584Z,27.00
2017-11-05T13:29:17.908Z,25.97
2017-11-05T13:31:45.447Z,34.03
2017-11-05T13:34:14.611Z,27.58
2017-11-05T13:36:42.923Z,29.10
2017-11-05T13:39:10.468Z,29.27
2017-11-05T13:41:38.083Z,25.80
2017-11-05T13:44:06.539Z,27.90
2017-11-05T13:46:34.127Z,29.67
2017-11-05T13:49:01.687Z,27.77
2017-11-05T13:51:29.275Z,27.05
2017-11-05T13:53:57.579Z,20.17
2017-11-05T13:56:25.475Z,12.03
2017-11-05T13:58:53.062Z,6.50
2017-11-05T14:01:20.602Z,7.32
2017-11-05T14:03:48.171Z,8.17
2017-11-05T14:06:16.396Z,7.73
2017-11-05T14:08:43.936Z,8.47
2017-11-05T14:11:12.276Z,9.13
2017-11-05T14:13:39.809Z,8.50
2017-11-05T14:16:07.339Z,7.60
2017-11-05T14:18:35.743Z,9.33
2017-11-05T14:21:03.267Z,9.20
2017-11-05T14:23:32.714Z,9.00
2017-11-05T14:26:02.778Z,9.80
2017-11-05T14:28:30.441Z,14.13
2017-11-05T14:30:58.906Z,7.67
2017-11-05T14:33:26.477Z,5.35
2017-11-05T14:35:53.998Z,3.77
2017-11-05T14:38:21.524Z,5.27
2017-11-05T14:40:49.872Z,4.63
2017-11-05T14:43:17.463Z,5.10
2017-11-05T14:45:45.760Z,4.00
2017-11-05T14:48:14.607Z,6.03
2017-11-05T14:50:42.136Z,6.57
2017-11-05T14:53:09.664Z,5.10
2017-11-05T14:55:37.223Z,4.70
2017-11-05T14:58:04.804Z,6.50
2017-11-05T15:00:32.331Z,3.42
2017-11-05T15:03:00.947Z,4.17
2017-11-05T15:05:28.637Z,6.12
